createdAt,value
2022-11-08T00:00:56.914Z,9.44
2022-11-08T00:02:31.683Z,9.47
2022-11-08T00:04:07.062Z,9.39
2022-11-08T00:05:57.831Z,9.33
2022-11-08T00:07:48.636Z,9.31
2022-11-08T00:09:39.773Z,9.32
2022-11-08T00:11:30.562Z,9.31
2022-11-08T00:13:24.545Z,9.33
2022-11-08T00:14:58.339Z,9.40
2022-11-08T00:16:30.681Z,9.44
2022-11-08T00:18:05.879Z,9.39
2022-11-08T00:19:38.012Z,9.34
2022-11-08T00:21:11.390Z,9.26
2022-11-08T00:22:44.860Z,9.23
2022-11-08T00:24:17.138Z,9.18
2022-11-08T00:25:54.722Z,9.19
2022-11-08T00:27:29.028Z,9.13
2022-11-08T00:29:02.665Z,9.10
2022-11-08T00:30:36.295Z,9.04
2022-11-08T00:32:13.032Z,9.02
2022-11-08T00:33:47.723Z,8.96
2022-11-08T00:35:20.870Z,8.94
2022-11-08T00:36:54.569Z,8.89
2022-11-08T00:38:27.765Z,8.80
2022-11-08T00:40:01.035Z,8.75
2022-11-08T00:41:34.704Z,8.70
2022-11-08T00:43:07.885Z,8.76
2022-11-08T00:44:41.064Z,8.76
2022-11-08T00:46:14.402Z,8.77
2022-11-08T00:47:47.786Z,8.80
2022-11-08T00:49:22.676Z,8.85
2022-11-08T00:50:55.879Z,8.83
2022-11-08T00:52:29.017Z,8.82
2022-11-08T00:54:02.559Z,8.74
2022-11-08T00:55:35.926Z,8.75
2022-11-08T00:57:09.091Z,8.74
2022-11-08T00:58:43.936Z,8.71
2022-11-08T01:00:17.911Z,8.71
2022-11-08T01:01:51.229Z,8.65
2022-11-08T01:03:24.139Z,8.67
2022-11-08T01:04:58.976Z,8.71
2022-11-08T01:06:31.422Z,8.72
2022-11-08T01:08:04.786Z,8.76
2022-11-08T01:09:38.081Z,8.72
2022-11-08T01:11:13.066Z,8.78
2022-11-08T01:12:46.283Z,8.81
2022-11-08T01:14:19.509Z,8.86
2022-11-08T01:15:51.855Z,8.89
2022-11-08T01:17:25.288Z,8.94
2022-11-08T01:18:59.489Z,8.97
2022-11-08T01:20:34.139Z,9.00
2022-11-08T01:22:07.334Z,8.94
2022-11-08T01:23:41.141Z,9.02
2022-11-08T01:25:14.332Z,9.04
2022-11-08T01:26:47.517Z,9.10
2022-11-08T01:28:20.118Z,9.13
2022-11-08T01:29:54.037Z,9.17
2022-11-08T01:31:29.423Z,9.18
2022-11-08T01:33:02.678Z,9.21
2022-11-08T01:34:36.115Z,9.19
2022-11-08T01:36:12.276Z,9.19
2022-11-08T01:37:45.507Z,9.17
2022-11-08T01:39:18.775Z,9.16
2022-11-08T01:40:50.918Z,9.16
2022-11-08T01:42:29.095Z,9.22
2022-11-08T01:44:02.419Z,9.23
2022-11-08T01:46:18.206Z,9.30
2022-11-08T01:47:51.696Z,9.31
2022-11-08T01:49:41.277Z,9.30
2022-11-08T01:51:18.362Z,9.27
2022-11-08T01:52:55.442Z,9.15
2022-11-08T01:54:33.619Z,9.06
2022-11-08T01:56:08.312Z,8.95
2022-11-08T01:57:48.059Z,8.88
2022-11-08T01:59:20.749Z,8.90
2022-11-08T02:00:54.367Z,8.89
2022-11-08T02:02:29.467Z,8.89
2022-11-08T02:04:03.870Z,8.92
2022-11-08T02:05:37.437Z,8.90
2022-11-08T02:07:13.249Z,8.83
2022-11-08T02:08:46.980Z,8.87
2022-11-08T02:10:23.456Z,8.87
2022-11-08T02:11:57.553Z,8.79
2022-11-08T02:13:33.406Z,8.92
2022-11-08T02:15:07.685Z,8.88
2022-11-08T02:16:39.863Z,8.97
2022-11-08T02:18:15.187Z,8.94
2022-11-08T02:19:51.672Z,8.94
2022-11-08T02:21:29.492Z,8.91
2022-11-08T02:23:14.591Z,8.90
2022-11-08T02:24:49.542Z,8.83
2022-11-08T02:26:26.209Z,8.95
2022-11-08T02:27:59.325Z,8.96
2022-11-08T02:29:34.934Z,8.98
2022-11-08T02:31:10.196Z,8.98
2022-11-08T02:32:43.977Z,8.97
2022-11-08T02:34:16.971Z,8.95
2022-11-08T02:35:55.191Z,8.95
2022-11-08T02:37:29.058Z,8.99
2022-11-08T02:39:02.260Z,8.98
2022-11-08T02:40:48.058Z,9.01
2022-11-08T02:42:21.989Z,9.04
2022-11-08T02:43:55.333Z,9.03
2022-11-08T02:45:28.588Z,9.09
2022-11-08T02:47:02.011Z,9.09
2022-11-08T02:48:34.305Z,9.07
2022-11-08T02:50:08.549Z,9.09
2022-11-08T02:51:40.637Z,9.13
2022-11-08T02:53:13.915Z,9.13
2022-11-08T02:54:47.130Z,9.06
2022-11-08T02:56:20.936Z,9.03
2022-11-08T02:57:54.121Z,9.07
2022-11-08T02:59:27.335Z,9.03
2022-11-08T03:00:59.646Z,9.02
2022-11-08T03:02:33.008Z,9.04
2022-11-08T03:04:06.703Z,9.04
2022-11-08T03:05:39.875Z,9.04
2022-11-08T03:07:13.105Z,9.05
2022-11-08T03:08:45.352Z,9.06
2022-11-08T03:10:19.343Z,9.03
2022-11-08T03:11:53.837Z,9.05
2022-11-08T03:13:27.073Z,9.04
2022-11-08T03:15:00.623Z,9.00
2022-11-08T03:16:33.816Z,9.02
2022-11-08T03:18:07.541Z,9.02
2022-11-08T03:19:40.693Z,9.05
2022-11-08T03:21:13.175Z,9.06
2022-11-08T03:22:46.717Z,9.08
2022-11-08T03:24:19.833Z,9.12
2022-11-08T03:25:53.037Z,9.12
2022-11-08T03:27:27.962Z,8.99
2022-11-08T03:29:01.192Z,9.10
2022-11-08T03:30:33.531Z,9.14
2022-11-08T03:32:06.955Z,9.17
2022-11-08T03:33:39.702Z,9.22
2022-11-08T03:35:12.911Z,9.25
2022-11-08T03:36:46.125Z,9.28
2022-11-08T03:38:18.972Z,9.26
2022-11-08T03:39:53.018Z,9.33
2022-11-08T03:41:26.389Z,9.34
2022-11-08T03:43:01.077Z,9.35
2022-11-08T03:44:34.415Z,9.37
2022-11-08T03:46:08.073Z,9.35
2022-11-08T03:47:42.019Z,9.32
2022-11-08T03:49:15.217Z,9.31
2022-11-08T03:50:47.461Z,9.29
2022-11-08T03:52:20.868Z,9.29
2022-11-08T03:53:54.176Z,9.27
2022-11-08T03:55:29.182Z,9.23
2022-11-08T03:57:02.367Z,9.26
2022-11-08T03:58:37.190Z,9.31
2022-11-08T04:00:11.939Z,9.36
2022-11-08T04:01:45.263Z,9.42
2022-11-08T04:03:18.636Z,9.47
2022-11-08T04:04:52.055Z,9.48
2022-11-08T04:06:25.497Z,9.46
2022-11-08T04:07:58.697Z,9.49
2022-11-08T04:09:31.853Z,9.51
2022-11-08T04:11:19.413Z,9.51
2022-11-08T04:13:10.028Z,9.51
2022-11-08T04:15:02.053Z,9.49
2022-11-08T04:16:35.899Z,9.50
2022-11-08T04:18:26.763Z,9.42
2022-11-08T04:20:13.700Z,9.49
2022-11-08T04:21:49.303Z,9.53
2022-11-08T04:23:22.618Z,9.52
2022-11-08T04:24:55.951Z,9.59
2022-11-08T04:26:29.081Z,9.61
2022-11-08T04:28:01.462Z,9.61
2022-11-08T04:29:34.703Z,9.62
2022-11-08T04:31:12.150Z,9.61
2022-11-08T04:32:45.550Z,9.64
2022-11-08T04:34:18.062Z,9.65
2022-11-08T04:35:52.186Z,9.65
2022-11-08T04:37:25.465Z,9.68
2022-11-08T04:38:58.621Z,9.66
2022-11-08T04:40:31.853Z,9.65
2022-11-08T04:42:05.237Z,9.67
2022-11-08T04:43:38.858Z,9.67
2022-11-08T04:45:12.408Z,9.66
2022-11-08T04:46:47.238Z,9.64
2022-11-08T04:48:19.694Z,9.66
2022-11-08T04:49:54.342Z,9.68
2022-11-08T04:51:29.440Z,9.70
2022-11-08T04:53:03.037Z,9.70
2022-11-08T04:54:36.161Z,9.72
2022-11-08T04:56:11.241Z,9.74
2022-11-08T04:57:44.329Z,9.74
2022-11-08T04:59:17.753Z,9.75
2022-11-08T05:00:50.970Z,9.71
2022-11-08T05:02:25.713Z,9.74
2022-11-08T05:03:59.039Z,9.73
2022-11-08T05:05:32.573Z,9.80
2022-11-08T05:07:05.791Z,9.81
2022-11-08T05:08:39.247Z,9.86
2022-11-08T05:10:11.481Z,9.87
2022-11-08T05:11:44.925Z,9.88
2022-11-08T05:13:18.148Z,9.86
2022-11-08T05:14:51.401Z,9.90
2022-11-08T05:16:26.224Z,9.88
2022-11-08T05:18:01.074Z,9.85
2022-11-08T05:19:51.951Z,9.85
2022-11-08T05:21:43.277Z,9.81
2022-11-08T05:23:25.863Z,9.81
2022-11-08T05:24:59.058Z,9.77
2022-11-08T05:26:35.349Z,9.75
2022-11-08T05:28:08.550Z,9.77
2022-11-08T05:29:42.387Z,9.81
2022-11-08T05:31:16.294Z,9.85
2022-11-08T05:32:51.576Z,9.83
2022-11-08T05:34:26.155Z,9.82
2022-11-08T05:36:05.886Z,9.88
2022-11-08T05:37:42.440Z,9.90
2022-11-08T05:39:15.621Z,9.95
2022-11-08T05:40:48.762Z,9.97
2022-11-08T05:42:22.232Z,9.96
2022-11-08T05:43:56.583Z,9.95
2022-11-08T05:45:29.857Z,9.94
2022-11-08T05:47:03.047Z,9.97
2022-11-08T05:48:36.938Z,10.03
2022-11-08T05:50:14.344Z,10.11
2022-11-08T05:51:51.551Z,10.13
2022-11-08T05:53:24.820Z,10.18
2022-11-08T05:54:58.341Z,10.17
2022-11-08T05:56:31.466Z,10.16
2022-11-08T05:58:04.750Z,10.16
2022-11-08T05:59:36.923Z,10.16
2022-11-08T06:01:12.461Z,10.19
2022-11-08T06:02:45.859Z,10.22
2022-11-08T06:04:19.032Z,10.23
2022-11-08T06:05:53.720Z,10.27
2022-11-08T06:07:27.310Z,10.29
2022-11-08T06:09:00.464Z,10.30
2022-11-08T06:10:33.750Z,10.34
2022-11-08T06:12:07.526Z,10.36
2022-11-08T06:13:41.010Z,10.42
2022-11-08T06:15:14.232Z,10.50
2022-11-08T06:16:47.528Z,10.51
2022-11-08T06:18:20.772Z,10.56
2022-11-08T06:19:54.160Z,10.60
2022-11-08T06:21:28.877Z,10.62
2022-11-08T06:23:02.169Z,10.71
2022-11-08T06:24:35.431Z,10.71
2022-11-08T06:26:09.358Z,10.76
2022-11-08T06:27:42.570Z,10.79
2022-11-08T06:29:16.005Z,10.84
2022-11-08T06:30:49.333Z,10.88
2022-11-08T06:32:22.960Z,10.86
2022-11-08T06:33:56.344Z,10.93
2022-11-08T06:35:29.618Z,10.95
2022-11-08T06:37:04.993Z,10.95
2022-11-08T06:38:38.563Z,10.99
2022-11-08T06:40:12.659Z,11.05
2022-11-08T06:41:45.842Z,11.11
2022-11-08T06:43:20.317Z,11.10
2022-11-08T06:44:53.954Z,11.15
2022-11-08T06:46:27.567Z,11.19
2022-11-08T06:48:03.638Z,11.18
2022-11-08T06:49:37.847Z,11.21
2022-11-08T06:51:11.439Z,11.21
2022-11-08T06:52:46.084Z,11.19
2022-11-08T06:54:24.459Z,11.17
2022-11-08T06:56:00.264Z,11.19
2022-11-08T06:57:34.893Z,11.09
2022-11-08T06:59:08.133Z,11.02
2022-11-08T07:00:41.404Z,10.94
2022-11-08T07:02:14.826Z,10.87
2022-11-08T07:03:48.347Z,10.87
2022-11-08T07:05:21.628Z,10.86
2022-11-08T07:06:54.886Z,10.88
2022-11-08T07:08:29.955Z,10.84
2022-11-08T07:10:04.263Z,10.84
2022-11-08T07:11:37.990Z,10.76
2022-11-08T07:13:13.741Z,10.75
2022-11-08T07:14:46.881Z,10.74
2022-11-08T07:16:20.239Z,10.72
2022-11-08T07:17:53.605Z,10.63
2022-11-08T07:19:26.891Z,10.66
2022-11-08T07:21:01.275Z,10.64
2022-11-08T07:22:34.488Z,10.64
2022-11-08T07:24:09.400Z,10.59
2022-11-08T07:25:42.282Z,10.56
2022-11-08T07:27:15.489Z,10.52
2022-11-08T07:28:48.872Z,10.52
2022-11-08T07:30:22.027Z,10.47
2022-11-08T07:31:55.289Z,10.50
2022-11-08T07:33:28.906Z,10.52
2022-11-08T07:35:02.374Z,10.58
2022-11-08T07:36:35.605Z,10.61
2022-11-08T07:38:08.869Z,10.56
2022-11-08T07:39:43.814Z,10.60
2022-11-08T07:41:17.311Z,10.63
2022-11-08T07:43:10.668Z,10.53
2022-11-08T07:44:44.083Z,10.72
2022-11-08T07:46:17.419Z,10.80
2022-11-08T07:47:58.517Z,10.75
2022-11-08T07:49:31.652Z,10.83
2022-11-08T07:51:04.909Z,10.94
2022-11-08T07:52:38.163Z,11.05
2022-11-08T07:54:11.556Z,11.09
2022-11-08T07:55:48.302Z,11.23
2022-11-08T07:57:21.590Z,11.30
2022-11-08T07:58:54.816Z,11.27
2022-11-08T08:00:28.300Z,11.33
2022-11-08T08:02:01.574Z,11.37
2022-11-08T08:03:34.891Z,11.40
2022-11-08T08:05:08.774Z,11.43
2022-11-08T08:06:42.133Z,11.53
2022-11-08T08:08:15.600Z,11.61
2022-11-08T08:09:50.230Z,11.63
2022-11-08T08:11:27.184Z,11.66
2022-11-08T08:13:05.195Z,11.80
2022-11-08T08:14:38.546Z,11.92
2022-11-08T08:16:12.032Z,12.02
2022-11-08T08:17:45.159Z,12.11
2022-11-08T08:19:25.151Z,12.24
2022-11-08T08:20:58.744Z,12.33
2022-11-08T08:22:32.134Z,12.41
2022-11-08T08:24:05.850Z,12.45
2022-11-08T08:25:40.883Z,12.49
2022-11-08T08:27:15.578Z,12.49
2022-11-08T08:28:49.245Z,12.59
2022-11-08T08:30:23.218Z,12.62
2022-11-08T08:31:57.502Z,12.71
2022-11-08T08:33:30.679Z,12.73
2022-11-08T08:35:04.015Z,12.76
2022-11-08T08:36:37.151Z,12.83
2022-11-08T08:38:12.229Z,12.87
2022-11-08T08:39:45.391Z,12.99
2022-11-08T08:41:30.790Z,13.12
2022-11-08T08:43:13.028Z,13.21
2022-11-08T08:44:53.161Z,13.27
2022-11-08T08:46:26.423Z,13.40
2022-11-08T08:48:00.307Z,13.42
2022-11-08T08:49:33.443Z,13.49
2022-11-08T08:51:07.029Z,13.73
2022-11-08T08:52:40.746Z,13.91
2022-11-08T08:54:15.454Z,14.19
2022-11-08T08:55:52.380Z,14.46
2022-11-08T08:57:25.899Z,14.73
2022-11-08T09:02:47.537Z,15.03
2022-11-08T09:04:20.968Z,15.05
2022-11-08T09:05:54.188Z,14.95
2022-11-08T09:07:27.325Z,14.82
2022-11-08T09:09:00.878Z,14.68
2022-11-08T09:10:34.054Z,14.65
2022-11-08T09:12:11.953Z,14.77
2022-11-08T09:13:47.713Z,14.87
2022-11-08T09:15:23.047Z,15.00
2022-11-08T09:16:57.237Z,15.02
2022-11-08T09:18:30.737Z,15.11
2022-11-08T09:20:04.452Z,15.08
2022-11-08T09:21:37.901Z,15.04
2022-11-08T09:23:11.992Z,14.98
2022-11-08T09:24:45.203Z,14.92
2022-11-08T09:26:18.410Z,14.87
2022-11-08T09:27:52.672Z,14.84
2022-11-08T09:29:26.014Z,14.79
2022-11-08T09:31:03.099Z,14.65
2022-11-08T09:32:59.024Z,14.59
2022-11-08T09:34:30.278Z,14.51
2022-11-08T09:36:04.220Z,14.44
2022-11-08T09:37:37.423Z,14.33
2022-11-08T09:39:10.550Z,14.33
2022-11-08T09:40:55.076Z,14.24
2022-11-08T09:42:46.495Z,14.08
2022-11-08T09:44:35.943Z,13.98
2022-11-08T09:46:12.678Z,13.87
2022-11-08T09:47:52.917Z,13.93
2022-11-08T09:49:33.164Z,14.03
2022-11-08T09:51:11.441Z,14.13
2022-11-08T09:52:50.588Z,14.24
2022-11-08T09:54:29.181Z,14.32
2022-11-08T09:56:07.873Z,14.28
2022-11-08T09:57:52.960Z,14.21
2022-11-08T09:59:33.873Z,14.21
2022-11-08T10:01:07.087Z,14.18
2022-11-08T10:02:41.770Z,14.26
2022-11-08T10:04:17.544Z,14.27
2022-11-08T10:06:10.260Z,14.30
2022-11-08T10:07:51.019Z,14.37
2022-11-08T10:09:43.706Z,14.47
2022-11-08T10:11:38.259Z,14.53
2022-11-08T10:13:20.106Z,14.60
2022-11-08T10:15:13.256Z,14.66
2022-11-08T10:16:55.128Z,14.76
2022-11-08T10:18:40.544Z,14.86
2022-11-08T10:20:27.064Z,14.93
2022-11-08T10:22:05.025Z,15.07
2022-11-08T10:23:45.454Z,15.20
2022-11-08T10:25:24.359Z,15.30
2022-11-08T10:27:00.501Z,15.34
2022-11-08T10:28:38.058Z,15.47
2022-11-08T10:30:20.843Z,15.57
2022-11-08T10:31:59.482Z,15.62
2022-11-08T10:33:39.083Z,15.70
2022-11-08T10:35:22.975Z,15.73
2022-11-08T10:37:04.390Z,15.83
2022-11-08T10:38:43.189Z,15.90
2022-11-08T10:40:26.430Z,15.94
2022-11-08T10:42:05.847Z,15.98
2022-11-08T10:43:43.578Z,16.10
2022-11-08T10:45:17.289Z,16.20
2022-11-08T10:46:53.932Z,16.32
2022-11-08T10:48:27.265Z,16.46
2022-11-08T10:50:04.364Z,16.60
2022-11-08T10:51:38.321Z,16.76
2022-11-08T10:53:18.738Z,16.95
2022-11-08T10:54:54.057Z,17.14
2022-11-08T10:56:27.246Z,17.30
2022-11-08T10:58:01.707Z,17.41
2022-11-08T10:59:35.190Z,17.52
2022-11-08T11:01:17.108Z,17.55
2022-11-08T11:02:53.055Z,17.58
2022-11-08T11:04:28.845Z,17.61
2022-11-08T11:06:05.116Z,17.58
2022-11-08T11:07:38.606Z,17.57
2022-11-08T11:09:20.957Z,17.58
2022-11-08T11:10:54.651Z,17.68
2022-11-08T11:12:28.144Z,17.81
2022-11-08T11:14:11.869Z,17.87
2022-11-08T11:15:51.170Z,17.92
2022-11-08T11:17:32.819Z,17.93
2022-11-08T11:19:16.157Z,17.81
2022-11-08T11:21:08.458Z,17.77
2022-11-08T11:22:47.872Z,17.84
2022-11-08T11:24:22.641Z,17.92
2022-11-08T11:25:55.868Z,17.90
2022-11-08T11:27:32.334Z,17.97
2022-11-08T11:29:25.203Z,17.99
2022-11-08T11:31:03.062Z,17.97
2022-11-08T11:32:35.942Z,17.96
2022-11-08T11:34:37.525Z,17.96
2022-11-08T11:36:16.937Z,17.89
2022-11-08T11:37:50.832Z,17.91
2022-11-08T11:39:30.629Z,17.92
2022-11-08T11:41:10.950Z,17.90
2022-11-08T11:42:54.576Z,17.91
2022-11-08T11:44:32.716Z,17.94
2022-11-08T11:46:14.740Z,18.00
2022-11-08T11:47:53.471Z,18.03
2022-11-08T11:49:30.562Z,18.03
2022-11-08T11:51:04.135Z,18.04
2022-11-08T11:52:38.962Z,18.07
2022-11-08T11:54:15.095Z,17.92
2022-11-08T11:56:14.517Z,17.96
2022-11-08T11:58:02.265Z,18.03
2022-11-08T11:59:55.197Z,18.06
2022-11-08T12:01:46.157Z,18.16
2022-11-08T12:03:37.116Z,18.30
2022-11-08T12:05:28.684Z,18.38
2022-11-08T12:07:08.549Z,18.38
2022-11-08T12:09:00.602Z,18.41
2022-11-08T12:10:50.039Z,18.42
2022-11-08T12:12:45.972Z,18.42
2022-11-08T12:14:37.144Z,18.55
2022-11-08T12:16:19.978Z,18.62
2022-11-08T12:18:07.521Z,18.67
2022-11-08T12:19:52.478Z,18.69
2022-11-08T12:21:33.671Z,18.75
2022-11-08T12:23:22.302Z,18.67
2022-11-08T12:25:06.019Z,18.74
2022-11-08T12:26:45.997Z,18.85
2022-11-08T12:28:42.034Z,18.87
2022-11-08T12:30:20.624Z,18.87
2022-11-08T12:32:22.698Z,18.93
2022-11-08T12:34:14.182Z,18.93
2022-11-08T12:35:59.626Z,18.88
2022-11-08T12:37:43.983Z,18.92
2022-11-08T12:39:28.965Z,19.05
2022-11-08T12:41:13.990Z,19.09
2022-11-08T12:43:05.083Z,19.18
2022-11-08T12:44:58.849Z,18.98
2022-11-08T12:46:38.255Z,19.05
2022-11-08T12:48:24.564Z,19.11
2022-11-08T12:50:11.901Z,19.07
2022-11-08T12:51:58.083Z,18.99
2022-11-08T12:53:50.768Z,18.96
2022-11-08T12:55:28.510Z,18.97
2022-11-08T12:57:07.154Z,18.90
2022-11-08T12:58:44.553Z,18.92
2022-11-08T13:00:19.568Z,18.90
2022-11-08T13:01:53.884Z,18.90
2022-11-08T13:03:53.021Z,18.82
2022-11-08T13:05:31.538Z,18.77
2022-11-08T13:07:13.212Z,18.74
2022-11-08T13:08:56.717Z,18.77
2022-11-08T13:10:39.213Z,18.77
2022-11-08T13:12:25.219Z,18.75
2022-11-08T13:14:00.716Z,18.76
2022-11-08T13:15:33.922Z,18.73
2022-11-08T13:17:19.772Z,18.72
2022-11-08T13:18:54.607Z,18.65
2022-11-08T13:20:46.346Z,18.62
2022-11-08T13:22:45.283Z,18.62
2022-11-08T13:24:44.697Z,18.51
2022-11-08T13:26:23.396Z,18.44
2022-11-08T13:27:58.720Z,18.41
2022-11-08T13:29:33.480Z,18.40
2022-11-08T13:31:28.919Z,18.34
2022-11-08T13:33:11.309Z,18.30
2022-11-08T13:34:51.840Z,18.30
2022-11-08T13:36:36.911Z,18.34
2022-11-08T13:38:25.617Z,18.30
2022-11-08T13:40:17.661Z,18.25
2022-11-08T13:42:05.363Z,18.26
2022-11-08T13:43:40.562Z,18.27
2022-11-08T13:45:33.559Z,18.24
2022-11-08T13:47:45.062Z,18.25
2022-11-08T13:49:24.317Z,18.25
2022-11-08T13:50:58.419Z,18.28
2022-11-08T13:52:46.676Z,18.25
2022-11-08T13:54:53.183Z,18.25
2022-11-08T13:56:51.185Z,18.22
2022-11-08T13:58:37.466Z,18.23
2022-11-08T14:00:36.412Z,18.22
2022-11-08T14:02:34.178Z,18.16
2022-11-08T14:04:25.708Z,18.19
2022-11-08T14:06:02.785Z,18.16
2022-11-08T14:07:43.778Z,18.14
2022-11-08T14:09:30.737Z,18.11
2022-11-08T14:11:35.669Z,18.07
2022-11-08T14:13:19.417Z,18.00
2022-11-08T14:15:05.315Z,17.90
2022-11-08T14:16:49.376Z,17.82
2022-11-08T14:18:27.530Z,17.72
2022-11-08T14:20:18.636Z,17.63
2022-11-08T14:21:55.034Z,17.59
2022-11-08T14:23:31.150Z,17.52
2022-11-08T14:25:15.435Z,17.43
2022-11-08T14:26:49.811Z,17.38
2022-11-08T14:28:25.541Z,17.32
2022-11-08T14:30:02.470Z,17.26
2022-11-08T14:31:36.052Z,17.22
2022-11-08T14:33:18.653Z,17.17
2022-11-08T14:34:52.308Z,17.16
2022-11-08T14:36:27.573Z,17.10
2022-11-08T14:38:01.244Z,17.02
2022-11-08T14:39:37.717Z,17.02
2022-11-08T14:41:17.990Z,16.98
2022-11-08T14:42:51.974Z,16.96
2022-11-08T14:44:26.410Z,16.90
2022-11-08T14:45:59.863Z,16.89
2022-11-08T14:47:37.043Z,16.83
2022-11-08T14:49:19.516Z,16.79
2022-11-08T14:51:00.039Z,16.76
2022-11-08T14:52:34.393Z,16.75
2022-11-08T14:54:17.639Z,16.74
2022-11-08T14:55:57.806Z,16.67
2022-11-08T14:57:33.584Z,16.70
2022-11-08T14:59:08.291Z,16.69
2022-11-08T16:09:09.256Z,16.05
2022-11-08T16:10:46.446Z,15.96
2022-11-08T16:12:19.672Z,15.95
2022-11-08T16:13:53.014Z,15.86
2022-11-08T16:15:27.493Z,15.88
2022-11-08T16:17:00.788Z,15.89
2022-11-08T16:18:34.396Z,15.89
2022-11-08T16:20:19.919Z,15.88
2022-11-08T16:21:53.761Z,15.88
2022-11-08T16:23:27.318Z,15.87
2022-11-08T16:25:00.448Z,15.83
2022-11-08T16:26:35.732Z,15.85
2022-11-08T16:28:19.481Z,15.83
2022-11-08T16:29:52.940Z,15.82
2022-11-08T16:31:26.129Z,15.84
2022-11-08T16:32:59.879Z,15.84
2022-11-08T16:34:33.912Z,15.84
2022-11-08T16:36:15.961Z,15.79
2022-11-08T16:37:50.904Z,15.78
2022-11-08T16:39:26.282Z,15.79
2022-11-08T16:40:59.660Z,15.76
2022-11-08T16:42:34.450Z,15.69
2022-11-08T16:44:07.805Z,15.68
2022-11-08T16:46:04.422Z,15.66
2022-11-08T16:47:35.190Z,15.65
2022-11-08T16:49:16.365Z,15.70
2022-11-08T16:50:49.870Z,15.71
2022-11-08T16:52:23.144Z,15.67
2022-11-08T16:53:56.551Z,15.65
2022-11-08T16:55:30.783Z,15.63
2022-11-08T16:57:28.660Z,15.59
2022-11-08T16:58:59.118Z,15.58
2022-11-08T17:00:32.234Z,15.55
2022-11-08T17:02:05.566Z,15.53
2022-11-08T17:03:38.952Z,15.53
2022-11-08T17:05:18.936Z,15.52
2022-11-08T17:06:52.113Z,15.48
2022-11-08T17:08:25.871Z,15.46
2022-11-08T17:09:59.072Z,15.44
2022-11-08T17:11:33.332Z,15.40
2022-11-08T17:13:06.536Z,15.32
2022-11-08T17:14:41.413Z,15.30
2022-11-08T17:16:14.921Z,15.26
2022-11-08T17:17:49.705Z,15.18
2022-11-08T17:19:26.851Z,15.25
2022-11-08T17:21:29.900Z,15.19
2022-11-08T17:23:00.142Z,15.11
2022-11-08T17:24:33.873Z,15.08
2022-11-08T17:26:08.066Z,15.10
2022-11-08T17:27:42.024Z,15.07
2022-11-08T17:29:15.318Z,15.06
2022-11-08T17:30:49.932Z,15.04
2022-11-08T17:32:23.050Z,15.02
2022-11-08T17:33:56.621Z,15.00
2022-11-08T17:35:30.178Z,14.97
2022-11-08T17:37:03.443Z,14.92
2022-11-08T17:38:37.254Z,14.92
2022-11-08T17:40:12.020Z,14.83
2022-11-08T17:41:45.729Z,14.86
2022-11-08T17:43:20.103Z,14.82
2022-11-08T17:44:54.495Z,14.78
2022-11-08T17:46:30.165Z,14.76
2022-11-08T17:48:03.662Z,14.63
2022-11-08T17:49:42.855Z,14.58
2022-11-08T17:51:17.197Z,14.58
2022-11-08T17:52:54.171Z,14.56
2022-11-08T17:54:27.515Z,14.53
2022-11-08T17:56:02.340Z,14.50
2022-11-08T17:57:35.625Z,14.49
2022-11-08T17:59:09.008Z,14.46
2022-11-08T18:00:42.889Z,14.41
2022-11-08T18:02:17.858Z,14.34
2022-11-08T18:03:51.196Z,14.30
2022-11-08T18:05:24.359Z,14.25
2022-11-08T18:06:58.275Z,14.22
2022-11-08T18:08:33.703Z,14.20
2022-11-08T18:10:09.247Z,14.14
2022-11-08T18:11:47.651Z,14.12
2022-11-08T18:13:21.698Z,14.11
2022-11-08T18:14:55.045Z,14.06
2022-11-08T18:16:29.727Z,14.03
2022-11-08T18:18:04.322Z,13.94
2022-11-08T18:19:37.818Z,13.92
2022-11-08T18:21:11.767Z,13.87
2022-11-08T18:22:44.981Z,13.82
2022-11-08T18:24:18.374Z,13.79
2022-11-08T18:25:53.474Z,13.73
2022-11-08T18:27:26.627Z,13.68
2022-11-08T18:28:59.972Z,13.68
2022-11-08T18:30:34.397Z,13.68
2022-11-08T18:32:07.900Z,13.66
2022-11-08T18:33:43.161Z,13.64
2022-11-08T18:35:16.579Z,13.57
2022-11-08T18:36:49.770Z,13.59
2022-11-08T18:38:24.588Z,13.56
2022-11-08T18:39:57.958Z,13.50
2022-11-08T18:41:33.097Z,13.49
2022-11-08T18:43:06.501Z,13.48
2022-11-08T18:44:40.913Z,13.38
2022-11-08T18:46:16.808Z,13.42
2022-11-08T18:47:50.348Z,13.36
2022-11-08T18:49:25.237Z,13.25
2022-11-08T18:50:58.735Z,13.31
2022-11-08T18:52:31.850Z,13.25
2022-11-08T18:54:05.286Z,13.25
2022-11-08T18:55:38.441Z,13.21
2022-11-08T18:57:12.529Z,13.19
2022-11-08T18:58:46.633Z,13.11
2022-11-08T19:00:20.163Z,13.11
2022-11-08T19:01:53.404Z,13.06
2022-11-08T19:03:27.995Z,13.03
2022-11-08T19:05:02.846Z,13.00
2022-11-08T19:06:36.214Z,12.95
2022-11-08T19:08:09.373Z,12.91
2022-11-08T19:09:42.978Z,12.89
2022-11-08T19:11:20.506Z,12.87
2022-11-08T19:12:53.853Z,12.82
2022-11-08T19:14:27.192Z,12.80
2022-11-08T19:16:03.884Z,12.70
2022-11-08T19:17:37.292Z,12.72
2022-11-08T19:19:10.524Z,12.71
2022-11-08T19:20:45.071Z,12.62
2022-11-08T19:22:18.862Z,12.53
2022-11-08T19:23:53.633Z,12.47
2022-11-08T19:25:26.988Z,12.40
2022-11-08T19:27:00.288Z,12.35
2022-11-08T19:28:35.992Z,12.27
2022-11-08T19:30:09.769Z,12.17
2022-11-08T19:31:45.479Z,12.08
2022-11-08T19:33:18.996Z,11.98
2022-11-08T19:34:52.812Z,11.92
2022-11-08T19:36:29.430Z,11.80
2022-11-08T19:38:02.776Z,11.81
2022-11-08T19:39:36.055Z,11.77
2022-11-08T19:41:12.001Z,11.73
2022-11-08T19:42:45.679Z,11.70
2022-11-08T19:44:18.996Z,11.68
2022-11-08T19:45:55.296Z,11.72
2022-11-08T19:47:28.762Z,11.70
2022-11-08T19:49:03.891Z,11.68
2022-11-08T19:50:37.152Z,11.72
2022-11-08T19:52:11.810Z,11.73
2022-11-08T19:53:45.865Z,11.69
2022-11-08T19:55:19.142Z,11.69
2022-11-08T19:57:07.729Z,11.68
2022-11-08T19:58:41.057Z,11.70
2022-11-08T20:00:18.114Z,11.67
2022-11-08T20:01:51.421Z,11.66
2022-11-08T20:03:24.761Z,11.70
2022-11-08T20:04:57.975Z,11.66
2022-11-08T20:06:32.588Z,11.56
2022-11-08T20:08:08.681Z,11.50
2022-11-08T20:09:42.099Z,11.44
2022-11-08T20:11:17.402Z,11.31
2022-11-08T20:12:51.053Z,11.25
2022-11-08T20:14:24.291Z,11.16
2022-11-08T20:16:08.669Z,11.11
2022-11-08T20:17:42.674Z,11.10
2022-11-08T20:19:18.055Z,11.09
2022-11-08T20:20:51.195Z,10.96
2022-11-08T20:22:24.465Z,10.91
2022-11-08T20:23:59.335Z,10.95
2022-11-08T20:25:34.499Z,10.96
2022-11-08T20:27:07.783Z,10.90
2022-11-08T20:28:41.894Z,10.91
2022-11-08T20:30:15.776Z,10.90
2022-11-08T20:31:52.244Z,10.80
2022-11-08T20:33:25.457Z,10.76
2022-11-08T20:34:58.836Z,10.71
2022-11-08T20:36:35.410Z,10.76
2022-11-08T20:38:09.199Z,10.80
2022-11-08T20:39:43.858Z,10.82
2022-11-08T20:41:18.811Z,10.86
2022-11-08T20:42:51.967Z,10.86
2022-11-08T20:44:25.879Z,10.87
2022-11-08T20:46:02.422Z,10.82
2022-11-08T20:47:35.965Z,10.82
2022-11-08T20:49:09.942Z,10.84
2022-11-08T20:50:43.473Z,10.89
2022-11-08T20:52:22.108Z,10.93
2022-11-08T20:53:55.290Z,10.91
2022-11-08T20:55:29.811Z,10.94
2022-11-08T20:57:03.502Z,10.91
2022-11-08T20:58:37.649Z,10.87
2022-11-08T21:00:13.731Z,10.88
2022-11-08T21:01:47.398Z,10.86
2022-11-08T21:03:21.050Z,10.79
2022-11-08T21:04:54.324Z,10.82
2022-11-08T21:06:30.066Z,10.83
2022-11-08T21:08:57.984Z,10.79
2022-11-08T21:10:35.905Z,10.77
2022-11-08T21:11:56.729Z,10.72
2022-11-08T21:13:33.276Z,10.77
2022-11-08T21:15:07.166Z,10.78
2022-11-08T21:17:14.601Z,10.83
2022-11-08T21:18:37.648Z,10.90
2022-11-08T21:20:12.999Z,10.91
2022-11-08T21:21:47.339Z,10.91
2022-11-08T21:23:20.913Z,10.84
2022-11-08T21:24:54.066Z,10.91
2022-11-08T21:26:27.673Z,10.85
2022-11-08T21:28:02.270Z,10.95
2022-11-08T21:29:35.780Z,10.97
2022-11-08T21:31:10.761Z,10.94
2022-11-08T21:32:44.263Z,11.00
2022-11-08T21:34:17.679Z,10.93
2022-11-08T21:35:51.376Z,10.96
2022-11-08T21:37:24.786Z,10.99
2022-11-08T21:38:58.108Z,11.01
2022-11-08T21:40:31.342Z,11.05
2022-11-08T21:42:04.838Z,11.08
2022-11-08T21:43:43.052Z,11.13
2022-11-08T21:45:16.615Z,11.19
2022-11-08T21:46:49.745Z,11.27
2022-11-08T21:48:23.530Z,11.34
2022-11-08T21:49:56.699Z,11.42
2022-11-08T21:51:31.585Z,11.47
2022-11-08T21:53:06.185Z,11.41
2022-11-08T21:54:40.486Z,11.56
2022-11-08T21:56:13.795Z,11.55
2022-11-08T21:57:47.376Z,11.57
2022-11-08T21:59:22.067Z,11.61
2022-11-08T22:00:55.333Z,11.65
2022-11-08T22:02:28.655Z,11.71
2022-11-08T22:04:01.921Z,11.74
2022-11-08T22:05:35.045Z,11.73
2022-11-08T22:07:08.473Z,11.63
2022-11-08T22:08:41.688Z,11.76
2022-11-08T22:10:15.118Z,11.77